createdAt,value
2019-05-06T00:00:27.449Z,7.00
2019-05-06T00:02:56.891Z,7.53
2019-05-06T00:05:26.278Z,6.60
2019-05-06T00:07:55.647Z,7.07
2019-05-06T00:10:35.246Z,6.53
2019-05-06T00:13:04.837Z,6.87
2019-05-06T00:15:34.518Z,6.53
2019-05-06T00:18:04.838Z,7.13
2019-05-06T00:20:35.344Z,7.30
2019-05-06T00:23:06.505Z,7.10
2019-05-06T00:25:53.594Z,6.77
2019-05-06T00:28:39.806Z,7.60
2019-05-06T00:31:14.047Z,7.70
2019-05-06T00:33:44.298Z,7.83
2019-05-06T00:36:14.154Z,6.87
2019-05-06T00:38:45.291Z,8.10
2019-05-06T00:41:21.972Z,7.67
2019-05-06T00:43:51.347Z,7.40
2019-05-06T00:46:21.082Z,7.23
2019-05-06T00:48:50.463Z,7.20
2019-05-06T00:51:19.829Z,7.30
2019-05-06T00:54:03.995Z,8.03
2019-05-06T00:56:33.972Z,7.30
2019-05-06T00:59:03.840Z,7.53
2019-05-06T01:01:34.504Z,7.93
2019-05-06T01:04:05.196Z,7.03
2019-05-06T01:06:34.768Z,8.77
2019-05-06T01:09:08.429Z,6.60
2019-05-06T01:11:37.875Z,6.70
2019-05-06T01:14:14.849Z,7.40
2019-05-06T01:16:44.307Z,6.45
2019-05-06T01:19:14.293Z,7.80
2019-05-06T01:21:44.765Z,7.72
2019-05-06T01:24:14.799Z,7.10
2019-05-06T01:26:44.722Z,6.62
2019-05-06T01:29:14.685Z,7.12
2019-05-06T01:31:46.174Z,7.55
2019-05-06T01:34:15.141Z,6.93
2019-05-06T01:36:44.513Z,7.67
2019-05-06T01:39:31.685Z,6.95
2019-05-06T01:42:04.469Z,7.40
2019-05-06T01:44:34.071Z,7.00
2019-05-06T01:47:03.874Z,7.77
2019-05-06T01:49:34.048Z,7.13
2019-05-06T01:52:04.072Z,7.60
2019-05-06T01:54:34.517Z,6.83
2019-05-06T01:57:04.567Z,7.30
2019-05-06T01:59:34.586Z,7.12
2019-05-06T02:02:05.324Z,7.50
2019-05-06T02:04:34.981Z,7.43
2019-05-06T02:07:04.358Z,7.83
2019-05-06T02:09:34.277Z,7.50
2019-05-06T02:12:04.951Z,6.75
2019-05-06T02:14:34.453Z,6.70
2019-05-06T02:17:04.015Z,6.67
2019-05-06T02:19:34.871Z,7.12
2019-05-06T02:22:05.902Z,6.60
2019-05-06T02:24:37.021Z,5.53
2019-05-06T02:27:07.038Z,6.70
2019-05-06T02:29:38.338Z,6.60
2019-05-06T02:32:30.937Z,6.37
2019-05-06T02:34:58.296Z,6.90
2019-05-06T02:37:38.358Z,6.70
2019-05-06T02:40:24.201Z,6.23
2019-05-06T02:42:54.769Z,7.97
2019-05-06T02:45:24.018Z,7.47
2019-05-06T02:48:04.409Z,6.33
2019-05-06T02:50:46.161Z,5.70
2019-05-06T02:53:17.185Z,6.57
2019-05-06T02:56:05.921Z,6.37
2019-05-06T02:58:35.281Z,6.20
2019-05-06T03:01:04.843Z,6.30
2019-05-06T03:03:34.277Z,6.90
2019-05-06T03:06:04.518Z,6.60
2019-05-06T03:08:34.067Z,6.83
2019-05-06T03:11:04.321Z,6.10
2019-05-06T03:13:34.344Z,7.10
2019-05-06T03:16:05.963Z,6.77
2019-05-06T03:18:35.511Z,7.87
2019-05-06T03:21:06.510Z,7.00
2019-05-06T03:23:37.557Z,7.20
2019-05-06T03:26:07.112Z,7.20
2019-05-06T03:28:36.597Z,7.40
2019-05-06T03:31:07.832Z,7.17
2019-05-06T03:33:55.340Z,7.43
2019-05-06T03:36:18.379Z,8.30
2019-05-06T03:38:42.853Z,8.00
2019-05-06T03:41:13.683Z,7.33
2019-05-06T03:43:43.778Z,8.47
2019-05-06T03:46:14.953Z,7.95
2019-05-06T03:48:48.637Z,8.25
2019-05-06T03:51:18.232Z,7.83
2019-05-06T03:53:47.922Z,8.03
2019-05-06T03:56:19.836Z,9.57
2019-05-06T03:58:53.772Z,8.30
2019-05-06T04:01:24.187Z,9.13
2019-05-06T04:03:57.256Z,7.13
2019-05-06T04:06:25.540Z,8.73
2019-05-06T04:08:55.559Z,8.53
2019-05-06T04:11:26.100Z,8.70
2019-05-06T04:13:56.803Z,8.70
2019-05-06T04:16:40.114Z,8.07
2019-05-06T04:19:15.413Z,8.13
2019-05-06T04:21:55.674Z,8.15
2019-05-06T04:24:43.104Z,9.47
2019-05-06T04:27:53.463Z,8.50
2019-05-06T04:30:24.349Z,8.83
2019-05-06T04:32:53.381Z,8.93
2019-05-06T04:35:23.160Z,8.60
2019-05-06T04:37:53.934Z,9.25
2019-05-06T04:40:24.006Z,8.60
2019-05-06T04:42:54.021Z,9.63
2019-05-06T04:45:23.874Z,9.20
2019-05-06T04:47:53.990Z,8.43
2019-05-06T04:50:24.382Z,8.93
2019-05-06T04:53:04.783Z,9.73
2019-05-06T04:55:36.062Z,8.90
2019-05-06T04:58:07.116Z,9.37
2019-05-06T05:00:37.894Z,9.17
2019-05-06T05:03:07.338Z,8.93
2019-05-06T05:05:36.805Z,9.33
2019-05-06T05:08:06.447Z,9.27
2019-05-06T05:10:59.565Z,8.23
2019-05-06T05:13:46.739Z,8.73
2019-05-06T05:16:23.846Z,8.80
2019-05-06T05:19:07.174Z,9.60
2019-05-06T05:21:36.536Z,9.40
2019-05-06T05:24:05.973Z,9.98
2019-05-06T05:26:36.972Z,9.40
2019-05-06T05:29:06.683Z,9.47
2019-05-06T05:31:36.460Z,8.27
2019-05-06T05:34:05.908Z,9.10
2019-05-06T05:36:35.277Z,9.37
2019-05-06T05:39:06.536Z,10.53
2019-05-06T05:41:37.393Z,10.07
2019-05-06T05:44:22.647Z,9.10
2019-05-06T05:46:52.539Z,8.90
2019-05-06T05:49:29.600Z,9.67
2019-05-06T05:51:59.396Z,8.87
2019-05-06T05:54:28.766Z,9.83
2019-05-06T05:56:58.223Z,10.20
2019-05-06T05:59:27.840Z,10.80
2019-05-06T06:01:57.210Z,10.57
2019-05-06T06:04:26.665Z,10.20
2019-05-06T06:06:56.064Z,10.47
2019-05-06T06:09:27.345Z,11.43
2019-05-06T06:11:58.856Z,10.53
2019-05-06T06:14:43.780Z,11.10
2019-05-06T06:17:32.545Z,10.87
2019-05-06T06:20:19.536Z,11.30
2019-05-06T06:22:49.040Z,11.18
2019-05-06T06:25:18.483Z,11.03
2019-05-06T06:27:51.872Z,10.93
2019-05-06T06:30:33.024Z,10.47
2019-05-06T06:33:02.654Z,10.32
2019-05-06T06:35:33.815Z,9.85
2019-05-06T06:38:04.832Z,10.83
2019-05-06T06:40:34.262Z,10.33
2019-05-06T06:43:05.475Z,10.23
2019-05-06T06:45:35.223Z,10.83
2019-05-06T06:48:04.940Z,9.93
2019-05-06T06:50:34.342Z,9.40
2019-05-06T06:53:03.807Z,10.03
2019-05-06T06:55:33.182Z,10.30
2019-05-06T06:58:04.825Z,10.47
2019-05-06T07:00:36.688Z,9.27
2019-05-06T07:03:26.278Z,10.83
2019-05-06T07:06:06.598Z,10.90
2019-05-06T07:08:37.664Z,9.33
2019-05-06T07:11:07.372Z,10.30
2019-05-06T07:13:38.363Z,9.87
2019-05-06T07:16:08.047Z,10.53
2019-05-06T07:18:37.425Z,9.87
2019-05-06T07:21:08.460Z,10.13
2019-05-06T07:23:37.866Z,9.73
2019-05-06T07:26:07.260Z,10.33
2019-05-06T07:28:36.646Z,9.17
2019-05-06T07:31:20.778Z,9.50
2019-05-06T07:33:37.582Z,9.90
2019-05-06T07:36:06.967Z,9.15
2019-05-06T07:38:36.413Z,9.57
2019-05-06T07:41:07.469Z,9.27
2019-05-06T07:43:42.068Z,10.30
2019-05-06T07:46:15.915Z,8.80
2019-05-06T07:48:45.305Z,9.07
2019-05-06T07:51:14.680Z,9.67
2019-05-06T07:53:44.062Z,8.57
2019-05-06T07:56:13.444Z,9.23
2019-05-06T07:58:43.511Z,8.40
2019-05-06T08:01:13.794Z,8.43
2019-05-06T08:03:43.576Z,8.23
2019-05-06T08:06:13.388Z,8.33
2019-05-06T08:08:43.549Z,7.80
2019-05-06T08:11:13.223Z,8.43
2019-05-06T08:13:43.424Z,8.93
2019-05-06T08:16:13.354Z,7.63
2019-05-06T08:18:42.872Z,7.27
2019-05-06T08:21:13.955Z,6.73
2019-05-06T08:23:44.987Z,6.40
2019-05-06T08:26:17.568Z,6.70
2019-05-06T08:28:45.476Z,7.80
2019-05-06T08:31:16.813Z,6.57
2019-05-06T08:33:46.610Z,6.70
2019-05-06T08:36:23.859Z,6.70
2019-05-06T08:38:57.585Z,6.63
2019-05-06T08:41:27.815Z,6.07
2019-05-06T08:43:57.537Z,5.63
2019-05-06T08:46:26.903Z,5.97
2019-05-06T08:48:56.342Z,6.57
2019-05-06T08:51:43.336Z,6.77
2019-05-06T08:54:17.290Z,6.43
2019-05-06T08:56:46.810Z,6.37
2019-05-06T08:59:16.490Z,6.17
2019-05-06T09:01:50.084Z,6.53
2019-05-06T09:04:19.528Z,6.33
2019-05-06T09:06:49.055Z,7.50
2019-05-06T09:09:18.469Z,6.47
2019-05-06T09:11:48.468Z,6.40
2019-05-06T09:14:18.551Z,7.20
2019-05-06T09:16:53.069Z,7.53
2019-05-06T09:19:20.066Z,5.77
2019-05-06T09:21:49.458Z,6.20
2019-05-06T09:24:19.092Z,5.67
2019-05-06T09:26:52.817Z,5.20
2019-05-06T09:29:29.524Z,5.33
2019-05-06T09:32:16.473Z,5.43
2019-05-06T09:34:52.832Z,6.40
2019-05-06T09:37:24.079Z,5.77
2019-05-06T09:39:53.595Z,5.53
2019-05-06T09:42:23.358Z,5.87
2019-05-06T09:44:54.190Z,5.60
2019-05-06T09:47:25.889Z,6.05
2019-05-06T09:49:55.279Z,5.87
2019-05-06T09:52:25.112Z,5.80
2019-05-06T09:55:03.271Z,6.03
2019-05-06T09:57:34.505Z,6.13
2019-05-06T10:00:06.225Z,5.60
2019-05-06T10:02:35.623Z,5.57
2019-05-06T10:05:07.076Z,5.10
2019-05-06T10:07:36.437Z,5.37
2019-05-06T10:10:07.277Z,4.90
2019-05-06T10:12:36.666Z,6.40
2019-05-06T10:15:06.730Z,5.93
2019-05-06T10:17:36.246Z,5.83
2019-05-06T10:20:07.613Z,5.90
2019-05-06T10:22:37.042Z,5.90
2019-05-06T10:25:06.822Z,6.40
2019-05-06T10:27:38.112Z,5.90
2019-05-06T10:30:12.601Z,6.47
2019-05-06T10:32:43.653Z,5.13
2019-05-06T10:35:13.441Z,4.43
2019-05-06T10:38:14.399Z,4.93
2019-05-06T10:41:02.887Z,5.50
2019-05-06T10:43:28.411Z,5.20
2019-05-06T10:46:00.889Z,5.63
2019-05-06T10:48:28.899Z,5.53
2019-05-06T10:50:59.948Z,4.80
2019-05-06T10:53:29.332Z,5.13
2019-05-06T10:56:02.289Z,5.40
2019-05-06T10:58:32.692Z,6.22
2019-05-06T11:01:04.106Z,5.77
2019-05-06T11:03:33.484Z,6.40
2019-05-06T11:06:02.863Z,6.03
2019-05-06T11:08:32.648Z,5.47
2019-05-06T11:11:14.976Z,6.07
2019-05-06T11:13:33.234Z,7.10
2019-05-06T11:16:03.413Z,6.00
2019-05-06T11:18:33.593Z,5.15
2019-05-06T11:21:03.627Z,5.83
2019-05-06T11:23:33.864Z,5.90
2019-05-06T11:26:04.063Z,7.00
2019-05-06T11:28:43.909Z,5.73
2019-05-06T11:31:27.329Z,5.53
2019-05-06T11:34:07.481Z,5.63
2019-05-06T11:36:46.969Z,6.30
2019-05-06T11:39:16.368Z,6.10
2019-05-06T11:42:01.611Z,6.23
2019-05-06T11:44:16.876Z,6.47
2019-05-06T11:46:46.250Z,6.13
2019-05-06T11:49:15.649Z,6.00
2019-05-06T11:51:45.341Z,6.40
2019-05-06T11:54:20.692Z,6.63
2019-05-06T11:56:51.303Z,6.50
2019-05-06T11:59:18.343Z,6.27
2019-05-06T12:01:49.388Z,5.87
2019-05-06T12:04:18.799Z,6.30
2019-05-06T12:06:48.158Z,6.17
2019-05-06T12:09:17.549Z,5.70
2019-05-06T12:11:47.009Z,5.63
2019-05-06T12:14:16.425Z,6.40
2019-05-06T12:16:45.797Z,5.47
2019-05-06T12:19:15.198Z,6.00
2019-05-06T12:21:44.610Z,5.70
2019-05-06T12:24:14.052Z,6.13
2019-05-06T12:26:43.580Z,6.03
2019-05-06T12:29:13.017Z,5.70
2019-05-06T12:31:42.738Z,5.40
2019-05-06T12:34:14.513Z,5.70
2019-05-06T12:36:43.286Z,6.53
2019-05-06T12:39:19.137Z,5.57
2019-05-06T12:41:53.480Z,5.97
2019-05-06T12:44:23.538Z,5.40
2019-05-06T12:47:13.431Z,5.57
2019-05-06T12:49:43.009Z,5.50
2019-05-06T12:52:12.769Z,5.27
2019-05-06T12:54:43.145Z,6.00
2019-05-06T12:57:12.779Z,5.63
2019-05-06T12:59:42.763Z,5.40
2019-05-06T13:02:13.251Z,5.70
2019-05-06T13:04:55.335Z,5.57
2019-05-06T13:07:15.567Z,5.80
2019-05-06T13:09:45.536Z,5.83
2019-05-06T13:12:16.664Z,5.63
2019-05-06T13:14:46.107Z,5.37
2019-05-06T13:17:17.144Z,6.27
2019-05-06T13:19:46.511Z,4.90
2019-05-06T13:22:17.533Z,5.07
2019-05-06T13:24:46.918Z,5.67
2019-05-06T13:27:17.939Z,5.87
2019-05-06T13:29:47.559Z,5.90
2019-05-06T13:32:18.598Z,5.20
2019-05-06T13:34:47.964Z,5.60
2019-05-06T13:37:17.464Z,5.77
2019-05-06T13:39:46.894Z,5.80
2019-05-06T13:42:17.920Z,5.90
2019-05-06T13:44:47.320Z,5.42
2019-05-06T13:47:22.911Z,6.23
2019-05-06T13:49:55.070Z,6.40
2019-05-06T13:52:25.041Z,6.97
2019-05-06T13:54:54.439Z,6.53
2019-05-06T13:57:23.817Z,6.50
2019-05-06T13:59:53.656Z,6.05
2019-05-06T14:02:28.470Z,6.45
2019-05-06T14:04:57.865Z,6.95
2019-05-06T14:07:27.270Z,6.70
2019-05-06T14:09:56.663Z,6.50
2019-05-06T14:12:26.058Z,6.50
2019-05-06T14:14:55.437Z,6.00
2019-05-06T14:17:24.821Z,5.83
2019-05-06T14:19:54.215Z,6.90
2019-05-06T14:22:24.008Z,6.35
2019-05-06T14:25:01.440Z,6.47
2019-05-06T14:27:32.777Z,6.67
2019-05-06T14:30:22.639Z,6.20
2019-05-06T14:32:52.719Z,6.57
2019-05-06T14:35:23.057Z,6.70
2019-05-06T14:37:52.948Z,6.97
2019-05-06T14:40:24.305Z,7.10
2019-05-06T14:42:54.182Z,6.17
2019-05-06T14:45:24.306Z,6.53
2019-05-06T14:47:54.323Z,6.37
2019-05-06T14:50:31.166Z,5.45
2019-05-06T14:52:55.520Z,5.47
2019-05-06T14:55:29.194Z,5.30
2019-05-06T14:57:58.589Z,6.05
2019-05-06T15:00:27.973Z,6.20
2019-05-06T15:02:57.347Z,5.23
2019-05-06T15:05:26.739Z,5.53
2019-05-06T15:07:56.118Z,4.90
2019-05-06T15:10:26.607Z,5.40
2019-05-06T15:12:56.123Z,6.57
2019-05-06T15:15:25.577Z,6.80
2019-05-06T15:17:54.989Z,6.57
2019-05-06T15:20:24.776Z,7.00
2019-05-06T15:22:55.095Z,7.67
2019-05-06T15:25:24.913Z,6.97
2019-05-06T15:27:54.886Z,7.80
2019-05-06T15:30:29.331Z,7.53
2019-05-06T15:32:58.752Z,7.03
2019-05-06T15:35:45.672Z,6.00
2019-05-06T15:38:16.687Z,5.60
2019-05-06T15:40:46.126Z,6.07
2019-05-06T15:43:15.487Z,5.73
2019-05-06T15:45:45.215Z,6.80
2019-05-06T15:48:14.925Z,6.37
2019-05-06T15:50:45.956Z,7.00
2019-05-06T15:53:15.495Z,7.03
2019-05-06T15:55:44.889Z,7.30
2019-05-06T15:58:14.296Z,6.45
2019-05-06T16:00:43.999Z,8.73
2019-05-06T16:03:13.778Z,7.73
2019-05-06T16:05:43.811Z,6.87
2019-05-06T16:08:13.583Z,7.30
2019-05-06T16:10:51.977Z,8.03
2019-05-06T16:13:14.098Z,6.80
2019-05-06T16:15:43.816Z,7.70
2019-05-06T16:18:13.200Z,7.23
2019-05-06T16:20:42.677Z,7.65
2019-05-06T16:23:16.093Z,8.33
2019-05-06T16:25:45.535Z,8.97
2019-05-06T16:28:14.889Z,9.23
2019-05-06T16:30:44.566Z,9.38
2019-05-06T16:33:15.323Z,9.00
2019-05-06T16:35:45.625Z,7.90
2019-05-06T16:38:15.408Z,8.50
2019-05-06T16:40:45.463Z,6.87
2019-05-06T16:43:15.056Z,7.65
2019-05-06T16:45:45.446Z,7.13
2019-05-06T16:48:15.040Z,6.87
2019-05-06T16:50:44.416Z,6.67
2019-05-06T16:53:13.831Z,7.57
2019-05-06T16:56:02.082Z,6.43
2019-05-06T16:58:32.933Z,7.50
2019-05-06T17:01:03.248Z,7.05
2019-05-06T17:03:43.539Z,6.80
2019-05-06T17:06:22.931Z,6.12
2019-05-06T17:08:52.861Z,6.87
2019-05-06T17:11:27.924Z,7.70
2019-05-06T17:13:53.833Z,7.63
2019-05-06T17:16:23.304Z,7.93
2019-05-06T17:18:56.520Z,7.87
2019-05-06T17:21:24.669Z,8.03
2019-05-06T17:23:54.105Z,7.37
2019-05-06T17:26:24.233Z,7.63
2019-05-06T17:28:55.296Z,7.97
2019-05-06T17:31:38.326Z,7.20
2019-05-06T17:34:12.826Z,7.40
2019-05-06T17:36:42.674Z,7.97
2019-05-06T17:39:12.655Z,7.57
2019-05-06T17:41:48.232Z,7.60
2019-05-06T17:44:13.443Z,7.77
2019-05-06T17:47:02.677Z,7.60
2019-05-06T17:49:39.135Z,8.77
2019-05-06T17:52:10.178Z,8.07
2019-05-06T17:54:39.888Z,7.70
2019-05-06T17:57:09.340Z,8.47
2019-05-06T17:59:38.777Z,8.43
2019-05-06T18:02:22.821Z,8.67
2019-05-06T18:04:53.289Z,9.23
2019-05-06T18:07:23.572Z,8.73
2019-05-06T18:09:52.992Z,9.03
2019-05-06T18:12:23.196Z,9.10
2019-05-06T18:14:53.505Z,9.30
2019-05-06T18:17:23.020Z,8.53
2019-05-06T18:19:52.753Z,8.20
2019-05-06T18:22:22.737Z,8.80
2019-05-06T18:24:52.654Z,8.47
2019-05-06T18:27:22.708Z,8.07
2019-05-06T18:29:53.238Z,9.43
2019-05-06T18:32:23.455Z,8.60
2019-05-06T18:34:52.931Z,9.37
2019-05-06T18:37:23.318Z,8.93
2019-05-06T18:39:53.109Z,9.10
2019-05-06T18:42:23.650Z,9.20
2019-05-06T18:44:53.353Z,8.40
2019-05-06T18:47:23.498Z,9.20
2019-05-06T18:49:52.886Z,10.30
2019-05-06T18:52:22.859Z,9.40
2019-05-06T18:54:52.719Z,10.10
2019-05-06T18:57:22.679Z,10.13
2019-05-06T18:59:53.290Z,8.70
2019-05-06T19:02:23.217Z,9.37
2019-05-06T19:04:54.236Z,9.63
2019-05-06T19:07:23.709Z,10.27
2019-05-06T19:09:54.786Z,9.13
2019-05-06T19:12:31.745Z,9.37
2019-05-06T19:14:55.329Z,8.97
2019-05-06T19:17:25.063Z,9.93
2019-05-06T19:19:54.448Z,9.83
2019-05-06T19:22:23.872Z,9.55
2019-05-06T19:24:53.310Z,10.27
2019-05-06T19:27:24.892Z,9.43
2019-05-06T19:29:54.594Z,10.70
2019-05-06T19:32:25.208Z,9.97
2019-05-06T19:34:54.597Z,9.90
2019-05-06T19:37:23.999Z,9.47
2019-05-06T19:39:53.391Z,10.73
2019-05-06T19:42:22.908Z,11.10
2019-05-06T19:44:52.819Z,10.60
2019-05-06T19:47:22.607Z,9.93
2019-05-06T19:49:53.251Z,10.63
2019-05-06T19:52:24.994Z,10.83
2019-05-06T19:54:56.727Z,10.20
2019-05-06T19:57:26.169Z,10.80
2019-05-06T19:59:55.555Z,10.43
2019-05-06T20:02:25.812Z,10.20
2019-05-06T20:04:57.104Z,10.53
2019-05-06T20:07:28.403Z,11.13
2019-05-06T20:10:04.869Z,10.88
2019-05-06T20:12:59.511Z,11.13
2019-05-06T20:15:35.286Z,9.93
2019-05-06T20:18:06.556Z,9.60
2019-05-06T20:20:36.740Z,10.90
2019-05-06T20:23:06.662Z,10.80
2019-05-06T20:25:37.179Z,10.72
2019-05-06T20:28:06.852Z,10.18
2019-05-06T20:30:36.244Z,11.30
2019-05-06T20:33:05.704Z,10.47
2019-05-06T20:35:35.076Z,10.83
2019-05-06T20:38:04.734Z,10.68
2019-05-06T20:40:34.205Z,11.20
2019-05-06T20:43:16.617Z,10.68
2019-05-06T20:45:35.456Z,11.33
2019-05-06T20:48:05.197Z,10.43
2019-05-06T20:50:34.603Z,10.73
2019-05-06T20:53:03.989Z,10.07
2019-05-06T20:55:35.744Z,10.57
2019-05-06T20:58:04.869Z,10.67
2019-05-06T21:00:34.249Z,10.27
2019-05-06T21:03:03.615Z,10.17
2019-05-06T21:05:33.003Z,10.57
2019-05-06T21:08:02.984Z,10.63
2019-05-06T21:10:33.270Z,10.18
2019-05-06T21:13:03.028Z,10.90
2019-05-06T21:15:33.083Z,11.10
2019-05-06T21:18:04.389Z,11.63
2019-05-06T21:20:34.076Z,10.50
2019-05-06T21:23:03.446Z,11.00
2019-05-06T21:25:33.334Z,9.90
2019-05-06T21:28:03.169Z,11.20
2019-05-06T21:30:32.739Z,10.03
2019-05-06T21:33:02.146Z,10.47
2019-05-06T21:35:33.124Z,11.40
2019-05-06T21:38:02.777Z,10.37
2019-05-06T21:40:32.419Z,9.60
2019-05-06T21:43:02.320Z,10.43
2019-05-06T21:45:33.144Z,10.40
2019-05-06T21:48:03.068Z,10.80
2019-05-06T21:50:33.179Z,11.30
2019-05-06T21:53:03.419Z,10.30
2019-05-06T21:55:32.869Z,10.03
2019-05-06T21:58:02.555Z,10.33
2019-05-06T22:00:40.049Z,10.97
2019-05-06T22:03:09.452Z,10.20
2019-05-06T22:05:38.863Z,10.83
2019-05-06T22:08:08.236Z,10.83
2019-05-06T22:10:37.650Z,11.83
2019-05-06T22:13:07.030Z,10.10
2019-05-06T22:15:36.866Z,10.97
2019-05-06T22:18:06.303Z,11.17
2019-05-06T22:20:37.563Z,11.53
2019-05-06T22:23:07.219Z,11.43
2019-05-06T22:25:36.893Z,10.60
2019-05-06T22:28:06.271Z,10.20
2019-05-06T22:30:35.990Z,10.30
2019-05-06T22:33:05.368Z,11.13
2019-05-06T22:35:34.752Z,10.80
2019-05-06T22:38:04.146Z,10.27
2019-05-06T22:40:33.518Z,10.30
2019-05-06T22:43:03.268Z,10.30
2019-05-06T22:45:33.076Z,11.67
2019-05-06T22:48:04.583Z,10.45
2019-05-06T22:50:34.070Z,10.27
2019-05-06T22:53:03.440Z,11.40
2019-05-06T22:55:33.049Z,11.03
2019-05-06T22:58:02.840Z,10.77
2019-05-06T23:00:34.191Z,11.97
2019-05-06T23:03:05.540Z,11.77
2019-05-06T23:05:34.917Z,11.57
2019-05-06T23:08:04.320Z,11.30
2019-05-06T23:10:33.963Z,11.60
2019-05-06T23:13:03.356Z,11.17
2019-05-06T23:15:34.203Z,11.57
2019-05-06T23:18:03.991Z,11.60
2019-05-06T23:20:33.354Z,11.30
2019-05-06T23:23:04.753Z,11.13
2019-05-06T23:25:33.866Z,11.40
2019-05-06T23:28:03.248Z,12.40
2019-05-06T23:30:33.422Z,11.97
2019-05-06T23:33:02.935Z,14.07
2019-05-06T23:35:32.313Z,13.17
2019-05-06T23:38:56.484Z,12.07
2019-05-06T23:42:22.703Z,11.53
2019-05-06T23:45:46.548Z,11.50
2019-05-06T23:49:12.907Z,12.03
2019-05-06T23:52:37.075Z,12.97
2019-05-06T23:56:02.768Z,12.82
2019-05-06T23:58:32.411Z,12.20
